<?xml version="1.0" encoding="UTF-8" standalone="no" ?>
<gpx xmlns="http://www.topografix.com/GPX/1/1" xmlns:xsi="http://www.w3.org/2001/XMLSchema-instance" xsi:schemaLocation="http://www.topografix.com/GPX/1/1 http://www.topografix.com/GPX/1/1/gpx.xsd" version="1.1" creator="VisuGPX - https://www.visugpx.com">
  <metadata>
    <name>Ajout Pyrénées</name>
    <desc><![CDATA[Randonnée sur le GR®654 Via Lemovicensis vers Saint-Jacques-de-Compostelle à travers les Landes et les Pyrénées-Atlantiques de Mont-de-Marsan à Saint-Palais. Gîtes d'étapes, Chambres d'hôtes, Maison d'hôtes, Hôtels, Camping, Refuges, Auberges, Commerces.]]></desc>
  </metadata>
  <trk>
    <name><![CDATA[GR®782 Chemin Henri IV (2021)]]></name>
    <desc><![CDATA[Randonnée sur le GR®782, Chemin Henri IV, à travers les Hautes-Pyrénées et les Pyrénées-Atlantiques de Lourdes à Artiguelouve. Gîtes d'étapes, Chambres d'hôtes, Maison d'hôtes, Hôtels, Camping, Refuges, Auberges, Commerces.]]></desc>
    <extensions>
      <line xmlns="http://www.topografix.com/GPX/gpx_style/0/2">
        <color>000000</color>
        <width>4</width>
      </line>
    </extensions>
    <trkseg>
      <trkpt lat="43.1103" lon="-0.06053">
        <ele>426.832</ele>
        <time>2021-05-13T17:43:43Z</time>
      </trkpt>
      <trkpt lat="43.10993" lon="-0.06103">
        <ele>422.792</ele>
        <time>2021-05-13T17:44:23Z</time>
      </trkpt>
      <trkpt lat="43.10982" lon="-0.06126">
        <ele>421.211</ele>
        <time>2021-05-13T17:45:03Z</time>
      </trkpt>
      <trkpt lat="43.10969" lon="-0.06192">
        <ele>417.408</ele>
        <time>2021-05-13T17:45:43Z</time>
      </trkpt>
      <trkpt lat="43.10949" lon="-0.06243">
        <ele>413.39</ele>
        <time>2021-05-13T17:46:23Z</time>
      </trkpt>
      <trkpt lat="43.10924" lon="-0.06268">
        <ele>411.895</ele>
        <time>2021-05-13T17:47:03Z</time>
      </trkpt>
      <trkpt lat="43.109" lon="-0.0628">
        <ele>411.272</ele>
        <time>2021-05-13T17:47:43Z</time>
      </trkpt>
      <trkpt lat="43.10931" lon="-0.06365">
        <ele>410.664</ele>
        <time>2021-05-13T17:48:23Z</time>
      </trkpt>
      <trkpt lat="43.10928" lon="-0.06408">
        <ele>410.485</ele>
        <time>2021-05-13T17:49:03Z</time>
      </trkpt>
      <trkpt lat="43.10889" lon="-0.06514">
        <ele>415.22</ele>
        <time>2021-05-13T17:49:43Z</time>
      </trkpt>
      <trkpt lat="43.10866" lon="-0.06529">
        <ele>415.149</ele>
        <time>2021-05-13T17:50:23Z</time>
      </trkpt>
      <trkpt lat="43.10786" lon="-0.06516">
        <ele>413.188</ele>
        <time>2021-05-13T17:51:03Z</time>
      </trkpt>
      <trkpt lat="43.10757" lon="-0.06519">
        <ele>412.613</ele>
        <time>2021-05-13T17:51:43Z</time>
      </trkpt>
      <trkpt lat="43.10738" lon="-0.06546">
        <ele>412.943</ele>
        <time>2021-05-13T17:52:23Z</time>
      </trkpt>
      <trkpt lat="43.10719" lon="-0.06561">
        <ele>412.707</ele>
        <time>2021-05-13T17:53:03Z</time>
      </trkpt>
      <trkpt lat="43.10814" lon="-0.06785">
        <ele>421.808</ele>
        <time>2020-10-31T09:57:38Z</time>
      </trkpt>
      <trkpt lat="43.10803" lon="-0.06852">
        <ele>423.768</ele>
        <time>2020-10-31T09:58:18Z</time>
      </trkpt>
      <trkpt lat="43.10753" lon="-0.07004">
        <ele>427.143</ele>
        <time>2020-10-31T09:58:58Z</time>
      </trkpt>
      <trkpt lat="43.10761" lon="-0.07107">
        <ele>430.51</ele>
        <time>2020-10-31T09:59:38Z</time>
      </trkpt>
      <trkpt lat="43.10753" lon="-0.0718">
        <ele>434.572</ele>
        <time>2020-10-31T10:00:18Z</time>
      </trkpt>
      <trkpt lat="43.10766" lon="-0.07455">
        <ele>436.863</ele>
        <time>2020-10-31T10:00:58Z</time>
      </trkpt>
      <trkpt lat="43.10788" lon="-0.07528">
        <ele>436.458</ele>
        <time>2020-10-31T10:01:38Z</time>
      </trkpt>
      <trkpt lat="43.10836" lon="-0.07573">
        <ele>447.457</ele>
        <time>2020-10-31T10:02:18Z</time>
      </trkpt>
      <trkpt lat="43.10846" lon="-0.07631">
        <ele>447.636</ele>
        <time>2020-10-31T10:02:58Z</time>
      </trkpt>
      <trkpt lat="43.10914" lon="-0.07701">
        <ele>458.127</ele>
        <time>2020-10-31T10:03:38Z</time>
      </trkpt>
      <trkpt lat="43.10971" lon="-0.07631">
        <ele>465.568</ele>
        <time>2020-10-31T10:04:18Z</time>
      </trkpt>
      <trkpt lat="43.11063" lon="-0.07695">
        <ele>470.714</ele>
        <time>2020-10-31T10:04:58Z</time>
      </trkpt>
      <trkpt lat="43.11092" lon="-0.07693">
        <ele>469.708</ele>
        <time>2020-10-31T10:05:38Z</time>
      </trkpt>
      <trkpt lat="43.11098" lon="-0.07744">
        <ele>468.689</ele>
        <time>2020-10-31T10:06:18Z</time>
      </trkpt>
      <trkpt lat="43.1117" lon="-0.07755">
        <ele>465.334</ele>
        <time>2020-10-31T10:06:58Z</time>
      </trkpt>
      <trkpt lat="43.112" lon="-0.07854">
        <ele>470.241</ele>
        <time>2020-10-31T10:07:38Z</time>
      </trkpt>
      <trkpt lat="43.11217" lon="-0.07993">
        <ele>477.123</ele>
        <time>2020-10-31T10:08:18Z</time>
      </trkpt>
      <trkpt lat="43.1125" lon="-0.08036">
        <ele>480.724</ele>
        <time>2020-10-31T10:08:58Z</time>
      </trkpt>
      <trkpt lat="43.11278" lon="-0.08113">
        <ele>485.099</ele>
        <time>2020-10-31T10:09:38Z</time>
      </trkpt>
      <trkpt lat="43.11308" lon="-0.08128">
        <ele>490.838</ele>
        <time>2020-10-31T10:10:18Z</time>
      </trkpt>
      <trkpt lat="43.11394" lon="-0.08096">
        <ele>494.827</ele>
        <time>2020-10-31T10:10:58Z</time>
      </trkpt>
      <trkpt lat="43.11414" lon="-0.08122">
        <ele>495.888</ele>
        <time>2020-10-31T10:11:38Z</time>
      </trkpt>
      <trkpt lat="43.11436" lon="-0.08227">
        <ele>499.424</ele>
        <time>2020-10-31T10:12:18Z</time>
      </trkpt>
      <trkpt lat="43.11456" lon="-0.08287">
        <ele>503.326</ele>
        <time>2020-10-31T10:12:58Z</time>
      </trkpt>
      <trkpt lat="43.11466" lon="-0.08362">
        <ele>503.608</ele>
        <time>2020-10-31T10:13:38Z</time>
      </trkpt>
      <trkpt lat="43.11514" lon="-0.08424">
        <ele>511.275</ele>
        <time>2020-10-31T10:14:18Z</time>
      </trkpt>
      <trkpt lat="43.11519" lon="-0.08485">
        <ele>512.29</ele>
        <time>2020-10-31T10:14:58Z</time>
      </trkpt>
      <trkpt lat="43.11552" lon="-0.08581">
        <ele>513.977</ele>
        <time>2020-10-31T10:15:38Z</time>
      </trkpt>
      <trkpt lat="43.11593" lon="-0.08622">
        <ele>514.739</ele>
        <time>2020-10-31T10:16:18Z</time>
      </trkpt>
      <trkpt lat="43.11771" lon="-0.08714">
        <ele>519.64</ele>
        <time>2020-10-31T10:16:58Z</time>
      </trkpt>
      <trkpt lat="43.11806" lon="-0.08693">
        <ele>518.925</ele>
        <time>2020-10-31T10:17:38Z</time>
      </trkpt>
      <trkpt lat="43.11934" lon="-0.08676">
        <ele>515.154</ele>
        <time>2020-10-31T10:18:18Z</time>
      </trkpt>
      <trkpt lat="43.12" lon="-0.08723">
        <ele>511.183</ele>
        <time>2020-10-31T10:18:58Z</time>
      </trkpt>
      <trkpt lat="43.12066" lon="-0.08864">
        <ele>508.375</ele>
        <time>2020-10-31T10:19:38Z</time>
      </trkpt>
      <trkpt lat="43.12085" lon="-0.08909">
        <ele>511.828</ele>
        <time>2020-10-31T10:20:18Z</time>
      </trkpt>
      <trkpt lat="43.12122" lon="-0.08972">
        <ele>513.12</ele>
        <time>2020-10-31T10:20:58Z</time>
      </trkpt>
      <trkpt lat="43.12232" lon="-0.09163">
        <ele>512.708</ele>
        <time>2020-10-31T10:21:38Z</time>
      </trkpt>
      <trkpt lat="43.12348" lon="-0.09285">
        <ele>509.064</ele>
        <time>2020-10-31T10:22:18Z</time>
      </trkpt>
      <trkpt lat="43.12428" lon="-0.09345">
        <ele>514.559</ele>
        <time>2020-10-31T10:22:58Z</time>
      </trkpt>
      <trkpt lat="43.12652" lon="-0.09603">
        <ele>510.026</ele>
        <time>2020-10-31T10:23:38Z</time>
      </trkpt>
      <trkpt lat="43.12769" lon="-0.09641">
        <ele>509.058</ele>
        <time>2020-10-31T10:24:18Z</time>
      </trkpt>
      <trkpt lat="43.12868" lon="-0.09742">
        <ele>508.839</ele>
        <time>2020-10-31T10:24:58Z</time>
      </trkpt>
      <trkpt lat="43.13469" lon="-0.10617">
        <ele>520.034</ele>
        <time>2020-10-31T10:25:38Z</time>
      </trkpt>
      <trkpt lat="43.13522" lon="-0.10714">
        <ele>520.053</ele>
        <time>2020-10-31T10:26:18Z</time>
      </trkpt>
      <trkpt lat="43.13568" lon="-0.10753">
        <ele>519.632</ele>
        <time>2020-10-31T10:26:58Z</time>
      </trkpt>
      <trkpt lat="43.13615" lon="-0.10755">
        <ele>515.235</ele>
        <time>2020-10-31T10:27:38Z</time>
      </trkpt>
      <trkpt lat="43.13621" lon="-0.10729">
        <ele>512.686</ele>
        <time>2020-10-31T10:28:18Z</time>
      </trkpt>
      <trkpt lat="43.13707" lon="-0.10658">
        <ele>509.814</ele>
        <time>2020-10-31T10:28:58Z</time>
      </trkpt>
      <trkpt lat="43.13757" lon="-0.10542">
        <ele>506.408</ele>
        <time>2020-10-31T10:29:38Z</time>
      </trkpt>
      <trkpt lat="43.13802" lon="-0.10525">
        <ele>506.41</ele>
        <time>2020-10-31T10:30:18Z</time>
      </trkpt>
      <trkpt lat="43.13851" lon="-0.10529">
        <ele>505.325</ele>
        <time>2020-10-31T10:30:58Z</time>
      </trkpt>
      <trkpt lat="43.139" lon="-0.10508">
        <ele>501.572</ele>
        <time>2020-10-31T10:31:38Z</time>
      </trkpt>
      <trkpt lat="43.13909" lon="-0.10532">
        <ele>504.314</ele>
        <time>2020-10-31T10:32:18Z</time>
      </trkpt>
      <trkpt lat="43.1389" lon="-0.10639">
        <ele>510.875</ele>
        <time>2020-10-31T10:32:58Z</time>
      </trkpt>
      <trkpt lat="43.13829" lon="-0.1068">
        <ele>516.93</ele>
        <time>2020-10-31T10:33:38Z</time>
      </trkpt>
      <trkpt lat="43.13849" lon="-0.108">
        <ele>517.039</ele>
        <time>2020-10-31T10:34:18Z</time>
      </trkpt>
      <trkpt lat="43.13842" lon="-0.10909">
        <ele>516.938</ele>
        <time>2020-10-31T10:34:58Z</time>
      </trkpt>
      <trkpt lat="43.13807" lon="-0.10963">
        <ele>514.611</ele>
        <time>2020-10-31T10:35:38Z</time>
      </trkpt>
      <trkpt lat="43.13801" lon="-0.10999">
        <ele>512.421</ele>
        <time>2020-10-31T10:36:18Z</time>
      </trkpt>
      <trkpt lat="43.13879" lon="-0.11167">
        <ele>510.003</ele>
        <time>2020-10-31T10:36:58Z</time>
      </trkpt>
      <trkpt lat="43.1392" lon="-0.11195">
        <ele>513.108</ele>
        <time>2020-10-31T10:37:38Z</time>
      </trkpt>
      <trkpt lat="43.13967" lon="-0.11184">
        <ele>512.058</ele>
        <time>2020-10-31T10:38:18Z</time>
      </trkpt>
      <trkpt lat="43.14" lon="-0.1119">
        <ele>510.993</ele>
        <time>2020-10-31T10:38:58Z</time>
      </trkpt>
      <trkpt lat="43.14102" lon="-0.11081">
        <ele>505.39</ele>
        <time>2020-10-31T10:39:38Z</time>
      </trkpt>
      <trkpt lat="43.14131" lon="-0.11085">
        <ele>501.112</ele>
        <time>2020-10-31T10:40:18Z</time>
      </trkpt>
      <trkpt lat="43.14294" lon="-0.11233">
        <ele>500.213</ele>
        <time>2020-10-31T10:40:58Z</time>
      </trkpt>
      <trkpt lat="43.14424" lon="-0.11394">
        <ele>508.968</ele>
        <time>2020-10-31T10:41:38Z</time>
      </trkpt>
      <trkpt lat="43.1452" lon="-0.11529">
        <ele>505.647</ele>
        <time>2020-10-31T10:42:18Z</time>
      </trkpt>
      <trkpt lat="43.14629" lon="-0.12064">
        <ele>500.066</ele>
        <time>2020-10-31T10:42:58Z</time>
      </trkpt>
      <trkpt lat="43.14706" lon="-0.12255">
        <ele>500.431</ele>
        <time>2020-10-31T10:43:38Z</time>
      </trkpt>
      <trkpt lat="43.14767" lon="-0.12353">
        <ele>501.561</ele>
        <time>2020-10-31T10:44:18Z</time>
      </trkpt>
      <trkpt lat="43.14988" lon="-0.12598">
        <ele>502.607</ele>
        <time>2020-10-31T10:44:58Z</time>
      </trkpt>
      <trkpt lat="43.15038" lon="-0.12714">
        <ele>502.608</ele>
        <time>2020-10-31T10:45:38Z</time>
      </trkpt>
      <trkpt lat="43.15057" lon="-0.12871">
        <ele>500.94</ele>
        <time>2020-10-31T10:46:18Z</time>
      </trkpt>
      <trkpt lat="43.15053" lon="-0.12978">
        <ele>499.315</ele>
        <time>2020-10-31T10:46:58Z</time>
      </trkpt>
      <trkpt lat="43.15039" lon="-0.13098">
        <ele>497.312</ele>
        <time>2020-10-31T10:47:38Z</time>
      </trkpt>
      <trkpt lat="43.15088" lon="-0.13368">
        <ele>491.644</ele>
        <time>2020-10-31T10:48:18Z</time>
      </trkpt>
      <trkpt lat="43.15124" lon="-0.13437">
        <ele>490.155</ele>
        <time>2020-10-31T10:48:58Z</time>
      </trkpt>
      <trkpt lat="43.15179" lon="-0.13476">
        <ele>490.02</ele>
        <time>2020-10-31T10:49:38Z</time>
      </trkpt>
      <trkpt lat="43.15208" lon="-0.13473">
        <ele>490.099</ele>
        <time>2020-10-31T10:50:18Z</time>
      </trkpt>
      <trkpt lat="43.15479" lon="-0.13675">
        <ele>485.238</ele>
        <time>2020-10-31T10:50:58Z</time>
      </trkpt>
      <trkpt lat="43.15572" lon="-0.13664">
        <ele>478.761</ele>
        <time>2020-10-31T10:51:38Z</time>
      </trkpt>
      <trkpt lat="43.15639" lon="-0.13744">
        <ele>478.821</ele>
        <time>2020-10-31T10:52:18Z</time>
      </trkpt>
      <trkpt lat="43.15745" lon="-0.13838">
        <ele>479.313</ele>
        <time>2020-10-31T10:52:58Z</time>
      </trkpt>
      <trkpt lat="43.15878" lon="-0.1404">
        <ele>480.008</ele>
        <time>2020-10-31T10:53:38Z</time>
      </trkpt>
      <trkpt lat="43.15917" lon="-0.14143">
        <ele>480.023</ele>
        <time>2020-10-31T10:54:18Z</time>
      </trkpt>
      <trkpt lat="43.15963" lon="-0.14351">
        <ele>484.148</ele>
        <time>2020-10-31T10:54:58Z</time>
      </trkpt>
      <trkpt lat="43.15989" lon="-0.14538">
        <ele>487.895</ele>
        <time>2020-10-31T10:55:38Z</time>
      </trkpt>
      <trkpt lat="43.16087" lon="-0.14883">
        <ele>490.027</ele>
        <time>2020-10-31T10:56:18Z</time>
      </trkpt>
      <trkpt lat="43.16254" lon="-0.14879">
        <ele>490.058</ele>
        <time>2020-10-31T10:56:58Z</time>
      </trkpt>
      <trkpt lat="43.16558" lon="-0.14993">
        <ele>480.023</ele>
        <time>2020-10-31T10:57:38Z</time>
      </trkpt>
      <trkpt lat="43.16741" lon="-0.15096">
        <ele>476.572</ele>
        <time>2020-10-31T10:58:18Z</time>
      </trkpt>
      <trkpt lat="43.16799" lon="-0.15109">
        <ele>472.431</ele>
        <time>2020-10-31T10:58:58Z</time>
      </trkpt>
      <trkpt lat="43.17013" lon="-0.15212">
        <ele>451.459</ele>
        <time>2020-10-31T10:59:38Z</time>
      </trkpt>
      <trkpt lat="43.17068" lon="-0.15272">
        <ele>458.903</ele>
        <time>2020-10-31T11:00:18Z</time>
      </trkpt>
      <trkpt lat="43.17195" lon="-0.15454">
        <ele>460.023</ele>
        <time>2020-10-31T11:00:58Z</time>
      </trkpt>
      <trkpt lat="43.17284" lon="-0.15688">
        <ele>461.008</ele>
        <time>2020-10-31T11:01:38Z</time>
      </trkpt>
      <trkpt lat="43.17346" lon="-0.15804">
        <ele>468.792</ele>
        <time>2020-10-31T11:02:18Z</time>
      </trkpt>
      <trkpt lat="43.17407" lon="-0.15857">
        <ele>480.037</ele>
        <time>2020-10-31T11:02:58Z</time>
      </trkpt>
      <trkpt lat="43.17586" lon="-0.15948">
        <ele>469.994</ele>
        <time>2020-10-31T11:03:38Z</time>
      </trkpt>
      <trkpt lat="43.17968" lon="-0.16265">
        <ele>472.396</ele>
        <time>2020-10-31T11:04:18Z</time>
      </trkpt>
      <trkpt lat="43.18173" lon="-0.1646">
        <ele>467.757</ele>
        <time>2020-10-31T11:04:58Z</time>
      </trkpt>
      <trkpt lat="43.18298" lon="-0.16535">
        <ele>460.322</ele>
        <time>2020-10-31T11:05:38Z</time>
      </trkpt>
      <trkpt lat="43.18437" lon="-0.16664">
        <ele>460.031</ele>
        <time>2020-10-31T11:06:18Z</time>
      </trkpt>
      <trkpt lat="43.18593" lon="-0.16844">
        <ele>460.07</ele>
        <time>2020-10-31T11:06:58Z</time>
      </trkpt>
      <trkpt lat="43.18783" lon="-0.17068">
        <ele>456.313</ele>
        <time>2020-10-31T11:07:38Z</time>
      </trkpt>
      <trkpt lat="43.1888" lon="-0.17117">
        <ele>443.443</ele>
        <time>2020-10-31T11:08:18Z</time>
      </trkpt>
      <trkpt lat="43.18996" lon="-0.17143">
        <ele>439.307</ele>
        <time>2020-10-31T11:08:58Z</time>
      </trkpt>
      <trkpt lat="43.19205" lon="-0.17241">
        <ele>430.008</ele>
        <time>2020-10-31T11:09:38Z</time>
      </trkpt>
      <trkpt lat="43.1942" lon="-0.17437">
        <ele>420.098</ele>
        <time>2020-10-31T11:10:18Z</time>
      </trkpt>
      <trkpt lat="43.19849" lon="-0.17692">
        <ele>430.083</ele>
        <time>2020-10-31T11:10:58Z</time>
      </trkpt>
      <trkpt lat="43.19939" lon="-0.17778">
        <ele>432.84</ele>
        <time>2020-10-31T11:11:38Z</time>
      </trkpt>
      <trkpt lat="43.20039" lon="-0.17992">
        <ele>440.052</ele>
        <time>2020-10-31T11:12:18Z</time>
      </trkpt>
      <trkpt lat="43.20157" lon="-0.18093">
        <ele>436.093</ele>
        <time>2020-10-31T11:12:58Z</time>
      </trkpt>
      <trkpt lat="43.20584" lon="-0.18186">
        <ele>415.038</ele>
        <time>2020-10-31T11:13:38Z</time>
      </trkpt>
      <trkpt lat="43.2089" lon="-0.18299">
        <ele>405.037</ele>
        <time>2020-10-31T11:14:18Z</time>
      </trkpt>
      <trkpt lat="43.20986" lon="-0.1834">
        <ele>405.026</ele>
        <time>2020-10-31T11:14:58Z</time>
      </trkpt>
      <trkpt lat="43.21165" lon="-0.18544">
        <ele>409.919</ele>
        <time>2020-10-31T11:15:38Z</time>
      </trkpt>
      <trkpt lat="43.21334" lon="-0.18801">
        <ele>410.009</ele>
        <time>2020-10-31T11:16:18Z</time>
      </trkpt>
      <trkpt lat="43.21474" lon="-0.18971">
        <ele>402.019</ele>
        <time>2020-10-31T11:16:58Z</time>
      </trkpt>
      <trkpt lat="43.21492" lon="-0.19035">
        <ele>404.408</ele>
        <time>2020-10-31T11:17:38Z</time>
      </trkpt>
      <trkpt lat="43.21528" lon="-0.19108">
        <ele>405.078</ele>
        <time>2020-10-31T11:18:18Z</time>
      </trkpt>
      <trkpt lat="43.21569" lon="-0.19254">
        <ele>404.523</ele>
        <time>2020-10-31T11:18:58Z</time>
      </trkpt>
      <trkpt lat="43.21602" lon="-0.1943">
        <ele>398.21</ele>
        <time>2020-10-31T11:19:38Z</time>
      </trkpt>
      <trkpt lat="43.21781" lon="-0.19583">
        <ele>394.162</ele>
        <time>2020-10-31T11:20:18Z</time>
      </trkpt>
      <trkpt lat="43.21795" lon="-0.1966">
        <ele>390.013</ele>
        <time>2021-05-13T19:17:03Z</time>
      </trkpt>
      <trkpt lat="43.21827" lon="-0.19629">
        <ele>391.528</ele>
        <time>2021-05-13T19:17:43Z</time>
      </trkpt>
      <trkpt lat="43.21956" lon="-0.19743">
        <ele>390.237</ele>
        <time>2021-05-13T19:18:23Z</time>
      </trkpt>
      <trkpt lat="43.2213" lon="-0.19924">
        <ele>384.966</ele>
        <time>2020-10-31T11:20:58Z</time>
      </trkpt>
      <trkpt lat="43.22171" lon="-0.19988">
        <ele>385.057</ele>
        <time>2020-10-31T11:21:38Z</time>
      </trkpt>
      <trkpt lat="43.22218" lon="-0.20132">
        <ele>385.7</ele>
        <time>2020-10-31T11:22:18Z</time>
      </trkpt>
      <trkpt lat="43.22288" lon="-0.20246">
        <ele>389.02</ele>
        <time>2020-10-31T11:22:58Z</time>
      </trkpt>
      <trkpt lat="43.22402" lon="-0.20383">
        <ele>393.708</ele>
        <time>2020-10-31T11:23:38Z</time>
      </trkpt>
      <trkpt lat="43.22521" lon="-0.20445">
        <ele>411.162</ele>
        <time>2020-10-31T11:24:18Z</time>
      </trkpt>
      <trkpt lat="43.22565" lon="-0.20458">
        <ele>414.327</ele>
        <time>2020-10-31T11:24:58Z</time>
      </trkpt>
      <trkpt lat="43.22663" lon="-0.20567">
        <ele>415.024</ele>
        <time>2020-10-31T11:25:38Z</time>
      </trkpt>
      <trkpt lat="43.22807" lon="-0.20791">
        <ele>394.386</ele>
        <time>2020-10-31T11:26:18Z</time>
      </trkpt>
      <trkpt lat="43.22896" lon="-0.20863">
        <ele>390.047</ele>
        <time>2020-10-31T11:26:58Z</time>
      </trkpt>
      <trkpt lat="43.23042" lon="-0.20915">
        <ele>390.012</ele>
        <time>2020-10-31T11:27:38Z</time>
      </trkpt>
      <trkpt lat="43.23225" lon="-0.21072">
        <ele>370.391</ele>
        <time>2020-10-31T11:28:18Z</time>
      </trkpt>
      <trkpt lat="43.23351" lon="-0.21213">
        <ele>360.79</ele>
        <time>2020-10-31T11:28:58Z</time>
      </trkpt>
      <trkpt lat="43.23462" lon="-0.21458">
        <ele>360.514</ele>
        <time>2020-10-31T11:29:38Z</time>
      </trkpt>
      <trkpt lat="43.23533" lon="-0.21503">
        <ele>365.254</ele>
        <time>2020-10-31T11:30:18Z</time>
      </trkpt>
      <trkpt lat="43.23664" lon="-0.2173">
        <ele>388.309</ele>
        <time>2020-10-31T11:30:58Z</time>
      </trkpt>
      <trkpt lat="43.23722" lon="-0.21874">
        <ele>395.008</ele>
        <time>2020-10-31T11:31:38Z</time>
      </trkpt>
      <trkpt lat="43.23802" lon="-0.22016">
        <ele>395.018</ele>
        <time>2020-10-31T11:32:18Z</time>
      </trkpt>
      <trkpt lat="43.23875" lon="-0.22082">
        <ele>395.073</ele>
        <time>2020-10-31T11:32:58Z</time>
      </trkpt>
      <trkpt lat="43.23934" lon="-0.22256">
        <ele>394.85</ele>
        <time>2020-10-31T11:33:38Z</time>
      </trkpt>
      <trkpt lat="43.23939" lon="-0.22389">
        <ele>393.842</ele>
        <time>2020-10-31T11:34:18Z</time>
      </trkpt>
      <trkpt lat="43.23988" lon="-0.22591">
        <ele>398.853</ele>
        <time>2020-10-31T11:34:58Z</time>
      </trkpt>
      <trkpt lat="43.24024" lon="-0.22717">
        <ele>409.738</ele>
        <time>2020-10-31T11:35:38Z</time>
      </trkpt>
      <trkpt lat="43.24074" lon="-0.22771">
        <ele>405.337</ele>
        <time>2020-10-31T11:36:18Z</time>
      </trkpt>
      <trkpt lat="43.24102" lon="-0.22831">
        <ele>400.836</ele>
        <time>2020-10-31T11:36:58Z</time>
      </trkpt>
      <trkpt lat="43.24152" lon="-0.22872">
        <ele>400.083</ele>
        <time>2020-10-31T11:37:38Z</time>
      </trkpt>
      <trkpt lat="43.24194" lon="-0.22945">
        <ele>397.925</ele>
        <time>2020-10-31T11:38:18Z</time>
      </trkpt>
      <trkpt lat="43.24253" lon="-0.22958">
        <ele>395.017</ele>
        <time>2020-10-31T11:38:58Z</time>
      </trkpt>
      <trkpt lat="43.24346" lon="-0.23035">
        <ele>395.008</ele>
        <time>2020-10-31T11:39:38Z</time>
      </trkpt>
      <trkpt lat="43.24466" lon="-0.232">
        <ele>394.995</ele>
        <time>2020-10-31T11:40:18Z</time>
      </trkpt>
      <trkpt lat="43.24477" lon="-0.23301">
        <ele>386.42</ele>
        <time>2020-10-31T11:40:58Z</time>
      </trkpt>
      <trkpt lat="43.24535" lon="-0.2335">
        <ele>386.197</ele>
        <time>2020-10-31T11:41:38Z</time>
      </trkpt>
      <trkpt lat="43.24552" lon="-0.23398">
        <ele>383.569</ele>
        <time>2020-10-31T11:42:18Z</time>
      </trkpt>
      <trkpt lat="43.24594" lon="-0.23449">
        <ele>385.47</ele>
        <time>2020-10-31T11:42:58Z</time>
      </trkpt>
      <trkpt lat="43.24618" lon="-0.23514">
        <ele>387.825</ele>
        <time>2020-10-31T11:43:38Z</time>
      </trkpt>
      <trkpt lat="43.24693" lon="-0.23582">
        <ele>394.954</ele>
        <time>2020-10-31T11:44:18Z</time>
      </trkpt>
      <trkpt lat="43.24704" lon="-0.23642">
        <ele>394.253</ele>
        <time>2020-10-31T11:44:58Z</time>
      </trkpt>
      <trkpt lat="43.24725" lon="-0.23702">
        <ele>395.058</ele>
        <time>2020-10-31T11:45:38Z</time>
      </trkpt>
      <trkpt lat="43.2479" lon="-0.23739">
        <ele>390.452</ele>
        <time>2020-10-31T11:46:18Z</time>
      </trkpt>
      <trkpt lat="43.24932" lon="-0.23893">
        <ele>373.517</ele>
        <time>2020-10-31T11:46:58Z</time>
      </trkpt>
      <trkpt lat="43.25077" lon="-0.24112">
        <ele>365.008</ele>
        <time>2020-10-31T11:47:38Z</time>
      </trkpt>
      <trkpt lat="43.25254" lon="-0.24434">
        <ele>355.012</ele>
        <time>2020-10-31T11:48:18Z</time>
      </trkpt>
      <trkpt lat="43.25315" lon="-0.24494">
        <ele>355.037</ele>
        <time>2020-10-31T11:48:58Z</time>
      </trkpt>
      <trkpt lat="43.25431" lon="-0.2473">
        <ele>357.214</ele>
        <time>2020-10-31T11:49:38Z</time>
      </trkpt>
      <trkpt lat="43.25494" lon="-0.24816">
        <ele>352.766</ele>
        <time>2020-10-31T11:50:18Z</time>
      </trkpt>
      <trkpt lat="43.25619" lon="-0.24923">
        <ele>344.237</ele>
        <time>2020-10-31T11:50:58Z</time>
      </trkpt>
      <trkpt lat="43.25723" lon="-0.24964">
        <ele>338.032</ele>
        <time>2020-10-31T11:51:38Z</time>
      </trkpt>
      <trkpt lat="43.25784" lon="-0.25054">
        <ele>339.351</ele>
        <time>2020-10-31T11:52:18Z</time>
      </trkpt>
      <trkpt lat="43.25838" lon="-0.25202">
        <ele>337.48</ele>
        <time>2020-10-31T11:52:58Z</time>
      </trkpt>
      <trkpt lat="43.26048" lon="-0.25329">
        <ele>314.885</ele>
        <time>2020-10-31T11:53:38Z</time>
      </trkpt>
      <trkpt lat="43.26264" lon="-0.25492">
        <ele>313.589</ele>
        <time>2020-10-31T11:54:18Z</time>
      </trkpt>
      <trkpt lat="43.26303" lon="-0.25593">
        <ele>320.517</ele>
        <time>2020-10-31T11:54:58Z</time>
      </trkpt>
      <trkpt lat="43.26317" lon="-0.25706">
        <ele>326.908</ele>
        <time>2020-10-31T11:55:38Z</time>
      </trkpt>
      <trkpt lat="43.263" lon="-0.2585">
        <ele>328.775</ele>
        <time>2020-10-31T11:56:18Z</time>
      </trkpt>
      <trkpt lat="43.26317" lon="-0.25951">
        <ele>328.93</ele>
        <time>2020-10-31T11:56:58Z</time>
      </trkpt>
      <trkpt lat="43.26375" lon="-0.26028">
        <ele>323.447</ele>
        <time>2020-10-31T11:57:38Z</time>
      </trkpt>
      <trkpt lat="43.26566" lon="-0.26112">
        <ele>316.299</ele>
        <time>2020-10-31T11:58:18Z</time>
      </trkpt>
      <trkpt lat="43.2663" lon="-0.26196">
        <ele>306.61</ele>
        <time>2020-10-31T11:58:58Z</time>
      </trkpt>
      <trkpt lat="43.26764" lon="-0.26473">
        <ele>284.065</ele>
        <time>2020-10-31T11:59:38Z</time>
      </trkpt>
      <trkpt lat="43.26766" lon="-0.26505">
        <ele>283.984</ele>
        <time>2020-10-31T12:00:18Z</time>
      </trkpt>
      <trkpt lat="43.26825" lon="-0.26681">
        <ele>293.613</ele>
        <time>2020-10-31T12:00:58Z</time>
      </trkpt>
      <trkpt lat="43.26888" lon="-0.26846">
        <ele>302.922</ele>
        <time>2020-10-31T12:01:38Z</time>
      </trkpt>
      <trkpt lat="43.26936" lon="-0.2694">
        <ele>300.262</ele>
        <time>2020-10-31T12:02:18Z</time>
      </trkpt>
      <trkpt lat="43.27014" lon="-0.27106">
        <ele>296.608</ele>
        <time>2020-10-31T12:02:58Z</time>
      </trkpt>
      <trkpt lat="43.27134" lon="-0.27219">
        <ele>276.008</ele>
        <time>2020-10-31T12:03:38Z</time>
      </trkpt>
      <trkpt lat="43.27139" lon="-0.27245">
        <ele>275.849</ele>
        <time>2020-10-31T12:04:18Z</time>
      </trkpt>
      <trkpt lat="43.27183" lon="-0.27333">
        <ele>272.774</ele>
        <time>2020-10-31T12:04:58Z</time>
      </trkpt>
      <trkpt lat="43.2722" lon="-0.27451">
        <ele>269.391</ele>
        <time>2020-10-31T12:05:38Z</time>
      </trkpt>
      <trkpt lat="43.27225" lon="-0.27545">
        <ele>269.493</ele>
        <time>2020-10-31T12:06:18Z</time>
      </trkpt>
      <trkpt lat="43.27292" lon="-0.27719">
        <ele>265.594</ele>
        <time>2020-10-31T12:06:58Z</time>
      </trkpt>
      <trkpt lat="43.27352" lon="-0.27739">
        <ele>263.379</ele>
        <time>2020-10-31T12:07:38Z</time>
      </trkpt>
      <trkpt lat="43.27364" lon="-0.27715">
        <ele>263.098</ele>
        <time>2020-10-31T12:08:18Z</time>
      </trkpt>
      <trkpt lat="43.27419" lon="-0.27809">
        <ele>261.057</ele>
        <time>2020-10-31T12:08:58Z</time>
      </trkpt>
      <trkpt lat="43.27453" lon="-0.2797">
        <ele>260.041</ele>
        <time>2020-10-31T12:09:38Z</time>
      </trkpt>
      <trkpt lat="43.27489" lon="-0.2799">
        <ele>260.081</ele>
        <time>2020-10-31T12:10:18Z</time>
      </trkpt>
      <trkpt lat="43.27602" lon="-0.28408">
        <ele>259.009</ele>
        <time>2020-10-31T12:10:58Z</time>
      </trkpt>
      <trkpt lat="43.27644" lon="-0.28603">
        <ele>257.808</ele>
        <time>2020-10-31T12:11:38Z</time>
      </trkpt>
      <trkpt lat="43.28056" lon="-0.30024">
        <ele>247.151</ele>
        <time>2020-10-31T12:12:18Z</time>
      </trkpt>
      <trkpt lat="43.28047" lon="-0.30056">
        <ele>247.386</ele>
        <time>2020-10-31T12:12:58Z</time>
      </trkpt>
      <trkpt lat="43.28089" lon="-0.30144">
        <ele>245.013</ele>
        <time>2020-10-31T12:13:38Z</time>
      </trkpt>
      <trkpt lat="43.2815" lon="-0.30303">
        <ele>243.775</ele>
        <time>2020-10-31T12:14:18Z</time>
      </trkpt>
      <trkpt lat="43.28236" lon="-0.30549">
        <ele>242.086</ele>
        <time>2020-10-31T12:14:58Z</time>
      </trkpt>
      <trkpt lat="43.28278" lon="-0.30736">
        <ele>242.031</ele>
        <time>2020-10-31T12:15:38Z</time>
      </trkpt>
      <trkpt lat="43.28303" lon="-0.30734">
        <ele>240.61</ele>
        <time>2020-10-31T12:16:18Z</time>
      </trkpt>
      <trkpt lat="43.28305" lon="-0.30768">
        <ele>241.039</ele>
        <time>2020-10-31T12:16:58Z</time>
      </trkpt>
      <trkpt lat="43.28298" lon="-0.30794">
        <ele>241.381</ele>
        <time>2020-10-31T12:17:38Z</time>
      </trkpt>
      <trkpt lat="43.28301" lon="-0.31015">
        <ele>239.361</ele>
        <time>2020-10-31T12:18:18Z</time>
      </trkpt>
      <trkpt lat="43.28333" lon="-0.31155">
        <ele>235.117</ele>
        <time>2020-10-31T12:18:58Z</time>
      </trkpt>
      <trkpt lat="43.28364" lon="-0.31511">
        <ele>234.808</ele>
        <time>2020-10-31T12:19:38Z</time>
      </trkpt>
      <trkpt lat="43.28364" lon="-0.31558">
        <ele>235.085</ele>
        <time>2020-10-31T12:20:18Z</time>
      </trkpt>
      <trkpt lat="43.28387" lon="-0.31594">
        <ele>235.07</ele>
        <time>2020-10-31T12:20:58Z</time>
      </trkpt>
      <trkpt lat="43.28406" lon="-0.3167">
        <ele>235.057</ele>
        <time>2020-10-31T12:21:38Z</time>
      </trkpt>
      <trkpt lat="43.28467" lon="-0.31824">
        <ele>234.779</ele>
        <time>2020-10-31T12:22:18Z</time>
      </trkpt>
      <trkpt lat="43.28499" lon="-0.31958">
        <ele>241.04</ele>
        <time>2020-10-31T12:22:58Z</time>
      </trkpt>
      <trkpt lat="43.2849" lon="-0.32067">
        <ele>235.015</ele>
        <time>2020-10-31T12:24:58Z</time>
      </trkpt>
      <trkpt lat="43.2845" lon="-0.32079">
        <ele>235.084</ele>
        <time>2020-10-31T12:25:38Z</time>
      </trkpt>
      <trkpt lat="43.28426" lon="-0.32037">
        <ele>235.063</ele>
        <time>2020-10-31T12:26:18Z</time>
      </trkpt>
      <trkpt lat="43.28361" lon="-0.32069">
        <ele>235.091</ele>
        <time>2020-10-31T12:26:58Z</time>
      </trkpt>
      <trkpt lat="43.2844" lon="-0.3229">
        <ele>235.081</ele>
        <time>2020-10-31T12:27:38Z</time>
      </trkpt>
      <trkpt lat="43.28473" lon="-0.32408">
        <ele>234.519</ele>
        <time>2020-10-31T12:28:18Z</time>
      </trkpt>
      <trkpt lat="43.28515" lon="-0.32474">
        <ele>229.208</ele>
        <time>2020-10-31T12:28:58Z</time>
      </trkpt>
      <trkpt lat="43.28531" lon="-0.32674">
        <ele>229.146</ele>
        <time>2020-10-31T12:29:38Z</time>
      </trkpt>
      <trkpt lat="43.28611" lon="-0.33142">
        <ele>229.061</ele>
        <time>2020-10-31T12:30:18Z</time>
      </trkpt>
      <trkpt lat="43.28614" lon="-0.3329">
        <ele>229.478</ele>
        <time>2020-10-31T12:30:58Z</time>
      </trkpt>
      <trkpt lat="43.28636" lon="-0.33333">
        <ele>226.43</ele>
        <time>2020-10-31T12:31:38Z</time>
      </trkpt>
      <trkpt lat="43.28659" lon="-0.33588">
        <ele>229.361</ele>
        <time>2020-10-31T12:32:18Z</time>
      </trkpt>
      <trkpt lat="43.28693" lon="-0.33727">
        <ele>226.266</ele>
        <time>2020-10-31T12:32:58Z</time>
      </trkpt>
      <trkpt lat="43.28684" lon="-0.3397">
        <ele>225.585</ele>
        <time>2020-10-31T12:33:38Z</time>
      </trkpt>
      <trkpt lat="43.28662" lon="-0.34219">
        <ele>225.154</ele>
        <time>2020-10-31T12:34:18Z</time>
      </trkpt>
      <trkpt lat="43.28689" lon="-0.34478">
        <ele>218.625</ele>
        <time>2020-10-31T12:34:58Z</time>
      </trkpt>
      <trkpt lat="43.28677" lon="-0.34993">
        <ele>194.126</ele>
        <time>2020-10-31T12:35:38Z</time>
      </trkpt>
      <trkpt lat="43.28818" lon="-0.35103">
        <ele>190.908</ele>
        <time>2020-10-31T12:36:18Z</time>
      </trkpt>
      <trkpt lat="43.28872" lon="-0.35241">
        <ele>189.608</ele>
        <time>2021-05-13T20:33:43Z</time>
      </trkpt>
      <trkpt lat="43.28889" lon="-0.35247">
        <ele>189.449</ele>
        <time>2021-05-13T20:34:23Z</time>
      </trkpt>
      <trkpt lat="43.28957" lon="-0.35387">
        <ele>188.534</ele>
        <time>2021-05-13T20:35:03Z</time>
      </trkpt>
      <trkpt lat="43.29002" lon="-0.3549">
        <ele>188.831</ele>
        <time>2021-05-13T20:35:43Z</time>
      </trkpt>
      <trkpt lat="43.29014" lon="-0.35561">
        <ele>188.553</ele>
        <time>2021-05-13T20:36:23Z</time>
      </trkpt>
      <trkpt lat="43.29067" lon="-0.35608">
        <ele>187.014</ele>
        <time>2021-05-13T20:37:03Z</time>
      </trkpt>
      <trkpt lat="43.2909" lon="-0.35661">
        <ele>187.869</ele>
        <time>2021-05-13T20:37:43Z</time>
      </trkpt>
      <trkpt lat="43.29167" lon="-0.35711">
        <ele>187.058</ele>
        <time>2020-10-31T12:36:58Z</time>
      </trkpt>
      <trkpt lat="43.29171" lon="-0.35788">
        <ele>186.917</ele>
        <time>2020-10-31T12:37:38Z</time>
      </trkpt>
      <trkpt lat="43.29251" lon="-0.35768">
        <ele>180.016</ele>
        <time>2020-10-31T12:38:18Z</time>
      </trkpt>
      <trkpt lat="43.29385" lon="-0.35832">
        <ele>183.976</ele>
        <time>2020-10-31T12:38:58Z</time>
      </trkpt>
      <trkpt lat="43.29428" lon="-0.35901">
        <ele>186.213</ele>
        <time>2020-10-31T12:39:38Z</time>
      </trkpt>
      <trkpt lat="43.29452" lon="-0.35926">
        <ele>199.008</ele>
        <time>2020-10-31T12:40:18Z</time>
      </trkpt>
      <trkpt lat="43.29438" lon="-0.36025">
        <ele>199.938</ele>
        <time>2021-05-13T20:42:23Z</time>
      </trkpt>
      <trkpt lat="43.29395" lon="-0.36142">
        <ele>202.873</ele>
        <time>2020-10-31T12:40:58Z</time>
      </trkpt>
      <trkpt lat="43.29381" lon="-0.36247">
        <ele>203.75</ele>
        <time>2020-10-31T12:41:38Z</time>
      </trkpt>
      <trkpt lat="43.29389" lon="-0.36278">
        <ele>205.482</ele>
        <time>2021-05-13T20:44:23Z</time>
      </trkpt>
      <trkpt lat="43.29406" lon="-0.36307">
        <ele>208.973</ele>
        <time>2020-10-31T12:42:18Z</time>
      </trkpt>
      <trkpt lat="43.29332" lon="-0.36815">
        <ele>199.318</ele>
        <time>2020-10-31T12:42:58Z</time>
      </trkpt>
      <trkpt lat="43.29339" lon="-0.37206">
        <ele>191.027</ele>
        <time>2020-10-31T12:43:38Z</time>
      </trkpt>
      <trkpt lat="43.29363" lon="-0.37302">
        <ele>189.786</ele>
        <time>2020-10-31T12:44:18Z</time>
      </trkpt>
      <trkpt lat="43.29393" lon="-0.37395">
        <ele>195.714</ele>
        <time>2021-05-13T20:47:43Z</time>
      </trkpt>
      <trkpt lat="43.29389" lon="-0.37431">
        <ele>191.854</ele>
        <time>2021-05-13T20:48:23Z</time>
      </trkpt>
      <trkpt lat="43.29418" lon="-0.37515">
        <ele>189.409</ele>
        <time>2021-05-13T20:49:03Z</time>
      </trkpt>
      <trkpt lat="43.29398" lon="-0.37543">
        <ele>185.908</ele>
        <time>2021-05-13T20:49:43Z</time>
      </trkpt>
      <trkpt lat="43.29401" lon="-0.37624">
        <ele>182.818</ele>
        <time>2021-05-13T20:50:23Z</time>
      </trkpt>
      <trkpt lat="43.2942" lon="-0.37732">
        <ele>181.493</ele>
        <time>2021-05-13T20:51:03Z</time>
      </trkpt>
      <trkpt lat="43.29263" lon="-0.37805">
        <ele>178.14</ele>
        <time>2021-05-13T20:51:43Z</time>
      </trkpt>
      <trkpt lat="43.29302" lon="-0.37957">
        <ele>175.582</ele>
        <time>2021-05-13T20:52:23Z</time>
      </trkpt>
      <trkpt lat="43.29301" lon="-0.38022">
        <ele>175.583</ele>
        <time>2021-05-13T20:53:03Z</time>
      </trkpt>
      <trkpt lat="43.29337" lon="-0.38226">
        <ele>174.668</ele>
        <time>2021-05-13T20:53:43Z</time>
      </trkpt>
      <trkpt lat="43.29297" lon="-0.38533">
        <ele>174.957</ele>
        <time>2021-05-13T20:54:23Z</time>
      </trkpt>
      <trkpt lat="43.29302" lon="-0.38666">
        <ele>173.636</ele>
        <time>2021-05-13T20:55:03Z</time>
      </trkpt>
      <trkpt lat="43.29511" lon="-0.38715">
        <ele>177.251</ele>
        <time>2021-05-13T20:55:43Z</time>
      </trkpt>
      <trkpt lat="43.29508" lon="-0.38736">
        <ele>176.001</ele>
        <time>2021-05-13T20:56:23Z</time>
      </trkpt>
      <trkpt lat="43.2943" lon="-0.3891">
        <ele>169.511</ele>
        <time>2020-10-31T12:55:38Z</time>
      </trkpt>
      <trkpt lat="43.29375" lon="-0.38915">
        <ele>166.508</ele>
        <time>2020-10-31T12:56:18Z</time>
      </trkpt>
      <trkpt lat="43.29344" lon="-0.38956">
        <ele>167.432</ele>
        <time>2020-10-31T12:56:58Z</time>
      </trkpt>
      <trkpt lat="43.29314" lon="-0.39054">
        <ele>167.067</ele>
        <time>2020-10-31T12:57:38Z</time>
      </trkpt>
      <trkpt lat="43.293" lon="-0.39136">
        <ele>167.034</ele>
        <time>2020-10-31T12:58:18Z</time>
      </trkpt>
      <trkpt lat="43.29277" lon="-0.39219">
        <ele>166.126</ele>
        <time>2020-10-31T12:58:58Z</time>
      </trkpt>
      <trkpt lat="43.29293" lon="-0.394">
        <ele>165.037</ele>
        <time>2020-10-31T12:59:38Z</time>
      </trkpt>
      <trkpt lat="43.29319" lon="-0.39486">
        <ele>165.092</ele>
        <time>2020-10-31T13:00:18Z</time>
      </trkpt>
      <trkpt lat="43.29354" lon="-0.39563">
        <ele>165.091</ele>
        <time>2020-10-31T13:00:58Z</time>
      </trkpt>
      <trkpt lat="43.29385" lon="-0.39606">
        <ele>165.09</ele>
        <time>2020-10-31T13:01:38Z</time>
      </trkpt>
      <trkpt lat="43.29464" lon="-0.39794">
        <ele>165.046</ele>
        <time>2020-10-31T13:02:18Z</time>
      </trkpt>
      <trkpt lat="43.29508" lon="-0.3982">
        <ele>165.088</ele>
        <time>2020-10-31T13:02:58Z</time>
      </trkpt>
      <trkpt lat="43.29514" lon="-0.39895">
        <ele>165.016</ele>
        <time>2020-10-31T13:03:38Z</time>
      </trkpt>
      <trkpt lat="43.2951" lon="-0.39975">
        <ele>165.008</ele>
        <time>2020-10-31T13:04:18Z</time>
      </trkpt>
      <trkpt lat="43.29483" lon="-0.40125">
        <ele>165.081</ele>
        <time>2020-10-31T13:04:58Z</time>
      </trkpt>
      <trkpt lat="43.2948" lon="-0.40206">
        <ele>165.056</ele>
        <time>2020-10-31T13:05:38Z</time>
      </trkpt>
      <trkpt lat="43.29491" lon="-0.40245">
        <ele>165.053</ele>
        <time>2020-10-31T13:06:18Z</time>
      </trkpt>
      <trkpt lat="43.29468" lon="-0.40284">
        <ele>165.035</ele>
        <time>2020-10-31T13:06:58Z</time>
      </trkpt>
      <trkpt lat="43.29457" lon="-0.40348">
        <ele>165.046</ele>
        <time>2020-10-31T13:07:38Z</time>
      </trkpt>
      <trkpt lat="43.29433" lon="-0.40455">
        <ele>165.071</ele>
        <time>2020-10-31T13:08:18Z</time>
      </trkpt>
      <trkpt lat="43.2936" lon="-0.40561">
        <ele>165.08</ele>
        <time>2020-10-31T13:08:58Z</time>
      </trkpt>
      <trkpt lat="43.29364" lon="-0.40621">
        <ele>165.039</ele>
        <time>2020-10-31T13:09:38Z</time>
      </trkpt>
      <trkpt lat="43.2935" lon="-0.40646">
        <ele>165.017</ele>
        <time>2020-10-31T13:10:18Z</time>
      </trkpt>
      <trkpt lat="43.29352" lon="-0.40681">
        <ele>165.087</ele>
        <time>2020-10-31T13:10:58Z</time>
      </trkpt>
      <trkpt lat="43.29336" lon="-0.40764">
        <ele>165.015</ele>
        <time>2020-10-31T13:11:38Z</time>
      </trkpt>
      <trkpt lat="43.29374" lon="-0.40889">
        <ele>165.008</ele>
        <time>2020-10-31T13:12:18Z</time>
      </trkpt>
      <trkpt lat="43.29402" lon="-0.4097">
        <ele>165.058</ele>
        <time>2020-10-31T13:12:58Z</time>
      </trkpt>
      <trkpt lat="43.29439" lon="-0.4102">
        <ele>165.013</ele>
        <time>2020-10-31T13:13:38Z</time>
      </trkpt>
      <trkpt lat="43.29488" lon="-0.41056">
        <ele>165.09</ele>
        <time>2020-10-31T13:14:18Z</time>
      </trkpt>
      <trkpt lat="43.29528" lon="-0.41133">
        <ele>165.022</ele>
        <time>2020-10-31T13:14:58Z</time>
      </trkpt>
      <trkpt lat="43.2955" lon="-0.41137">
        <ele>165.093</ele>
        <time>2020-10-31T13:15:38Z</time>
      </trkpt>
      <trkpt lat="43.29575" lon="-0.41129">
        <ele>165.078</ele>
        <time>2020-10-31T13:16:18Z</time>
      </trkpt>
      <trkpt lat="43.29636" lon="-0.41142">
        <ele>165.037</ele>
        <time>2020-10-31T13:16:58Z</time>
      </trkpt>
      <trkpt lat="43.29674" lon="-0.41146">
        <ele>165.036</ele>
        <time>2020-10-31T13:17:38Z</time>
      </trkpt>
      <trkpt lat="43.29702" lon="-0.41174">
        <ele>165.078</ele>
        <time>2020-10-31T13:18:18Z</time>
      </trkpt>
      <trkpt lat="43.29703" lon="-0.41249">
        <ele>165.033</ele>
        <time>2020-10-31T13:18:58Z</time>
      </trkpt>
      <trkpt lat="43.29735" lon="-0.41286">
        <ele>165.026</ele>
        <time>2020-10-31T13:19:38Z</time>
      </trkpt>
      <trkpt lat="43.29678" lon="-0.41376">
        <ele>164.008</ele>
        <time>2020-10-31T13:20:18Z</time>
      </trkpt>
      <trkpt lat="43.29694" lon="-0.41397">
        <ele>164.014</ele>
        <time>2020-10-31T13:20:58Z</time>
      </trkpt>
      <trkpt lat="43.29708" lon="-0.41464">
        <ele>164.029</ele>
        <time>2020-10-31T13:21:38Z</time>
      </trkpt>
      <trkpt lat="43.29772" lon="-0.41549">
        <ele>164.076</ele>
        <time>2020-10-31T13:22:18Z</time>
      </trkpt>
      <trkpt lat="43.29772" lon="-0.4159">
        <ele>164.098</ele>
        <time>2020-10-31T13:22:58Z</time>
      </trkpt>
      <trkpt lat="43.29797" lon="-0.41642">
        <ele>164.059</ele>
        <time>2020-10-31T13:23:38Z</time>
      </trkpt>
      <trkpt lat="43.29794" lon="-0.417">
        <ele>164.034</ele>
        <time>2020-10-31T13:24:18Z</time>
      </trkpt>
      <trkpt lat="43.29813" lon="-0.4177">
        <ele>164.023</ele>
        <time>2020-10-31T13:24:58Z</time>
      </trkpt>
      <trkpt lat="43.29816" lon="-0.41805">
        <ele>164.052</ele>
        <time>2020-10-31T13:25:38Z</time>
      </trkpt>
      <trkpt lat="43.29847" lon="-0.41848">
        <ele>164.036</ele>
        <time>2020-10-31T13:26:18Z</time>
      </trkpt>
      <trkpt lat="43.29864" lon="-0.41914">
        <ele>164.017</ele>
        <time>2020-10-31T13:26:58Z</time>
      </trkpt>
      <trkpt lat="43.29969" lon="-0.42084">
        <ele>164.018</ele>
        <time>2020-10-31T13:27:38Z</time>
      </trkpt>
      <trkpt lat="43.29989" lon="-0.4215">
        <ele>161.208</ele>
        <time>2020-10-31T13:28:18Z</time>
      </trkpt>
      <trkpt lat="43.29997" lon="-0.42279">
        <ele>160.46</ele>
        <time>2020-10-31T13:28:58Z</time>
      </trkpt>
      <trkpt lat="43.30014" lon="-0.42333">
        <ele>160.095</ele>
        <time>2020-10-31T13:29:38Z</time>
      </trkpt>
      <trkpt lat="43.30014" lon="-0.42363">
        <ele>160.592</ele>
        <time>2020-10-31T13:30:18Z</time>
      </trkpt>
      <trkpt lat="43.30066" lon="-0.42498">
        <ele>160.064</ele>
        <time>2020-10-31T13:30:58Z</time>
      </trkpt>
      <trkpt lat="43.30083" lon="-0.42537">
        <ele>160.055</ele>
        <time>2020-10-31T13:31:38Z</time>
      </trkpt>
      <trkpt lat="43.30134" lon="-0.42676">
        <ele>159.75</ele>
        <time>2020-10-31T13:32:18Z</time>
      </trkpt>
      <trkpt lat="43.30175" lon="-0.42835">
        <ele>159.059</ele>
        <time>2020-10-31T13:32:58Z</time>
      </trkpt>
      <trkpt lat="43.30186" lon="-0.42908">
        <ele>159.248</ele>
        <time>2020-10-31T13:33:38Z</time>
      </trkpt>
      <trkpt lat="43.30223" lon="-0.43">
        <ele>159.041</ele>
        <time>2020-10-31T13:34:18Z</time>
      </trkpt>
      <trkpt lat="43.30255" lon="-0.43146">
        <ele>159.081</ele>
        <time>2020-10-31T13:34:58Z</time>
      </trkpt>
      <trkpt lat="43.30275" lon="-0.43245">
        <ele>159.509</ele>
        <time>2020-10-31T13:35:38Z</time>
      </trkpt>
      <trkpt lat="43.30333" lon="-0.4336">
        <ele>159.008</ele>
        <time>2020-10-31T13:36:18Z</time>
      </trkpt>
      <trkpt lat="43.30383" lon="-0.43485">
        <ele>159.181</ele>
        <time>2020-10-31T13:36:58Z</time>
      </trkpt>
      <trkpt lat="43.30369" lon="-0.43519">
        <ele>159.936</ele>
        <time>2020-10-31T13:37:38Z</time>
      </trkpt>
      <trkpt lat="43.3044" lon="-0.43712">
        <ele>158.613</ele>
        <time>2020-10-31T13:38:18Z</time>
      </trkpt>
      <trkpt lat="43.30483" lon="-0.43779">
        <ele>156.345</ele>
        <time>2020-10-31T13:38:58Z</time>
      </trkpt>
      <trkpt lat="43.30483" lon="-0.43827">
        <ele>162.356</ele>
        <time>2020-10-31T13:39:38Z</time>
      </trkpt>
      <trkpt lat="43.3064" lon="-0.44097">
        <ele>155.351</ele>
        <time>2020-10-31T13:40:58Z</time>
      </trkpt>
      <trkpt lat="43.30722" lon="-0.44234">
        <ele>155.66</ele>
        <time>2020-10-31T13:41:38Z</time>
      </trkpt>
      <trkpt lat="43.30757" lon="-0.44347">
        <ele>153.839</ele>
        <time>2020-10-31T13:42:18Z</time>
      </trkpt>
      <trkpt lat="43.3079" lon="-0.44511">
        <ele>154.216</ele>
        <time>2020-10-31T13:42:58Z</time>
      </trkpt>
      <trkpt lat="43.3084" lon="-0.44635">
        <ele>154.076</ele>
        <time>2020-10-31T13:43:38Z</time>
      </trkpt>
      <trkpt lat="43.30899" lon="-0.44738">
        <ele>154.013</ele>
        <time>2020-10-31T13:44:18Z</time>
      </trkpt>
      <trkpt lat="43.30945" lon="-0.44772">
        <ele>154.008</ele>
        <time>2020-10-31T13:44:58Z</time>
      </trkpt>
      <trkpt lat="43.30995" lon="-0.44854">
        <ele>154.068</ele>
        <time>2020-10-31T13:45:38Z</time>
      </trkpt>
      <trkpt lat="43.31226" lon="-0.45036">
        <ele>154.063</ele>
        <time>2020-10-31T13:46:18Z</time>
      </trkpt>
      <trkpt lat="43.31369" lon="-0.45122">
        <ele>152.13</ele>
        <time>2020-10-31T13:46:58Z</time>
      </trkpt>
      <trkpt lat="43.3143" lon="-0.45139">
        <ele>151.042</ele>
        <time>2020-10-31T13:47:38Z</time>
      </trkpt>
      <trkpt lat="43.31466" lon="-0.45161">
        <ele>149.453</ele>
        <time>2020-10-31T13:48:18Z</time>
      </trkpt>
      <trkpt lat="43.31512" lon="-0.45167">
        <ele>149.088</ele>
        <time>2020-10-31T13:48:58Z</time>
      </trkpt>
      <trkpt lat="43.3158" lon="-0.45197">
        <ele>149.037</ele>
        <time>2020-10-31T13:49:38Z</time>
      </trkpt>
      <trkpt lat="43.31666" lon="-0.4518">
        <ele>149.036</ele>
        <time>2020-10-31T13:50:18Z</time>
      </trkpt>
      <trkpt lat="43.31735" lon="-0.45191">
        <ele>149.055</ele>
        <time>2020-10-31T13:50:58Z</time>
      </trkpt>
      <trkpt lat="43.31803" lon="-0.45238">
        <ele>149.007</ele>
        <time>2020-10-31T13:51:38Z</time>
      </trkpt>
      <trkpt lat="43.31811" lon="-0.45305">
        <ele>149.017</ele>
        <time>2020-10-31T13:52:18Z</time>
      </trkpt>
      <trkpt lat="43.31836" lon="-0.45343">
        <ele>149.008</ele>
        <time>2020-10-31T13:52:58Z</time>
      </trkpt>
      <trkpt lat="43.31857" lon="-0.45347">
        <ele>149.032</ele>
        <time>2020-10-31T13:53:38Z</time>
      </trkpt>
      <trkpt lat="43.31913" lon="-0.45425">
        <ele>149.087</ele>
        <time>2020-10-31T13:54:18Z</time>
      </trkpt>
      <trkpt lat="43.32078" lon="-0.45525">
        <ele>148.074</ele>
        <time>2020-10-31T13:54:58Z</time>
      </trkpt>
      <trkpt lat="43.32186" lon="-0.4557">
        <ele>147.076</ele>
        <time>2020-10-31T13:55:38Z</time>
      </trkpt>
      <trkpt lat="43.32324" lon="-0.45673">
        <ele>146.097</ele>
        <time>2020-10-31T13:56:18Z</time>
      </trkpt>
      <trkpt lat="43.32448" lon="-0.45754">
        <ele>145.092</ele>
        <time>2020-10-31T13:56:58Z</time>
      </trkpt>
      <trkpt lat="43.32584" lon="-0.45911">
        <ele>145.061</ele>
        <time>2020-10-31T13:57:38Z</time>
      </trkpt>
      <trkpt lat="43.32678" lon="-0.45999">
        <ele>145.05</ele>
        <time>2020-10-31T13:58:18Z</time>
      </trkpt>
      <trkpt lat="43.32742" lon="-0.46091">
        <ele>145.076</ele>
        <time>2020-10-31T13:58:58Z</time>
      </trkpt>
      <trkpt lat="43.32768" lon="-0.46149">
        <ele>145.09</ele>
        <time>2020-10-31T13:59:38Z</time>
      </trkpt>
      <trkpt lat="43.32797" lon="-0.46181">
        <ele>145.019</ele>
        <time>2020-10-31T14:00:18Z</time>
      </trkpt>
      <trkpt lat="43.32875" lon="-0.46304">
        <ele>145.008</ele>
        <time>2020-10-31T14:00:58Z</time>
      </trkpt>
      <trkpt lat="43.32982" lon="-0.4642">
        <ele>145.064</ele>
        <time>2020-10-31T14:01:38Z</time>
      </trkpt>
      <trkpt lat="43.33054" lon="-0.46465">
        <ele>145.069</ele>
        <time>2020-10-31T14:02:18Z</time>
      </trkpt>
      <trkpt lat="43.33107" lon="-0.46555">
        <ele>145.016</ele>
        <time>2020-10-31T14:02:58Z</time>
      </trkpt>
    </trkseg>
  </trk>
</gpx>